Pagrindinis puslapis
METAR-TAF:

METAR-TAF

Oro uostai :

Batmanas, Turkija

platuma: 37-52N, ilguma: 041-10E, Aukštis: 540 m

Dabartinis oras

Ataskaita buvo paskelbta 30 minutes, ne 03:50 UTC
Vėjas 4 kt iš Pietų/Pietvakarių, svyruoja nuo Pietų ir Vakarų
Temperatūra 17°C
Drėgmė 68%
Slėgis 1011 hPa
Matomumas 10 km arba daugiau
nėra debesų žemiau 1500 m ir nėra kamuolinių lietaus debesų

METAR: LTCJ 220350Z 21004KT 170V260 CAVOK 17/11 Q1011 NOSIG RMK RWY20 19004KT 160V220 SKC

Laikas: 07:20 (04:20 UTC)

Prognozė

Ataskaita buvo paskelbta 5 valandos ir 40 minutes, ne 22:40 UTC
Prognozė galioja nuo 22 metu 00 UTC su 22 metu 24 UTC
Vėjas 2 kt nuo kintamojo kryptimis
Matomumas 10 km arba daugiau
nėra debesų žemiau 1500 m ir nėra kamuolinių lietaus debesų
Laikinai
nuo 22 metu 11 UTC su 22 metu 15 UTC
Vėjas 12 kt iš Šiaurės

TAF: LTCJ 212240Z 2200/2224 VRB02KT CAVOK TEMPO 2211/2215 36012KT

Orai ataskaitas ir orų prognozės (METAR, TAF).

turimą stotys yra geltonos ir raudonos taškus žemėlapyje.

Perkelti pele per norėdami pamatyti stoties vardą.

Tada spustelėkite, norėdami matyti oro stebėjimo ir prognozės.

Norėdami pakeisti žemėlapį: spustelėkite ant žalios mygtukų su juodo kryžiaus žemyn,; žalią mygtuką su brūkšneliu, jei norite nutolinti; arba žalių rodyklių gretimoms žemėlapius.


METAR-TAF: